sensor_id;sensor_type;location;lat;lon;timestamp;P1;durP1;ratioP1;P2;durP2;ratioP2
43819;SDS011;67762;52.476;6.046;2023-05-02T00:00:08;1999.90;;;999.90;;
43819;SDS011;67762;52.476;6.046;2023-05-02T00:02:34;1999.90;;;999.90;;
43819;SDS011;67762;52.476;6.046;2023-05-02T00:05:00;1999.90;;;999.90;;
43819;SDS011;67762;52.476;6.046;2023-05-02T00:07:26;1999.90;;;999.90;;
43819;SDS011;67762;52.476;6.046;2023-05-02T00:09:52;1999.90;;;999.90;;
43819;SDS011;67762;52.476;6.046;2023-05-02T00:12:17;1999.90;;;999.90;;
43819;SDS011;67762;52.476;6.046;2023-05-02T00:14:43;1999.90;;;999.90;;
43819;SDS011;67762;52.476;6.046;2023-05-02T00:17:14;1999.90;;;999.90;;
43819;SDS011;67762;52.476;6.046;2023-05-02T00:19:41;1999.90;;;999.90;;
43819;SDS011;67762;52.476;6.046;2023-05-02T00:22:07;1999.90;;;999.90;;
43819;SDS011;67762;52.476;6.046;2023-05-02T00:24:32;1999.90;;;999.90;;
43819;SDS011;67762;52.476;6.046;2023-05-02T00:26:58;1999.90;;;999.90;;
43819;SDS011;67762;52.476;6.046;2023-05-02T00:29:23;1999.90;;;999.90;;
43819;SDS011;67762;52.476;6.046;2023-05-02T00:31:49;1999.90;;;999.90;;
43819;SDS011;67762;52.476;6.046;2023-05-02T00:34:15;1999.90;;;999.90;;
43819;SDS011;67762;52.476;6.046;2023-05-02T00:36:41;1999.90;;;999.90;;
43819;SDS011;67762;52.476;6.046;2023-05-02T00:39:07;1999.90;;;999.90;;
43819;SDS011;67762;52.476;6.046;2023-05-02T00:41:32;1999.90;;;999.90;;
43819;SDS011;67762;52.476;6.046;2023-05-02T00:43:58;1999.90;;;999.90;;
43819;SDS011;67762;52.476;6.046;2023-05-02T00:46:23;1999.90;;;999.90;;
43819;SDS011;67762;52.476;6.046;2023-05-02T00:48:49;1999.90;;;999.90;;
43819;SDS011;67762;52.476;6.046;2023-05-02T00:51:15;1999.90;;;999.90;;
43819;SDS011;67762;52.476;6.046;2023-05-02T00:53:41;1999.90;;;999.90;;
43819;SDS011;67762;52.476;6.046;2023-05-02T00:56:07;1999.90;;;999.90;;
43819;SDS011;67762;52.476;6.046;2023-05-02T00:58:33;1999.90;;;999.90;;
43819;SDS011;67762;52.476;6.046;2023-05-02T01:04:15;1999.90;;;999.90;;
43819;SDS011;67762;52.476;6.046;2023-05-02T01:10:12;1999.90;;;999.90;;
43819;SDS011;67762;52.476;6.046;2023-05-02T01:15:18;1999.90;;;999.90;;
43819;SDS011;67762;52.476;6.046;2023-05-02T01:17:47;1999.90;;;999.90;;
43819;SDS011;67762;52.476;6.046;2023-05-02T01:20:16;1999.90;;;999.90;;
43819;SDS011;67762;52.476;6.046;2023-05-02T01:22:45;1999.90;;;999.90;;
43819;SDS011;67762;52.476;6.046;2023-05-02T01:30:46;1999.90;;;999.90;;
43819;SDS011;67762;52.476;6.046;2023-05-02T01:33:15;1999.90;;;999.90;;
43819;SDS011;67762;52.476;6.046;2023-05-02T01:35:42;1999.90;;;999.90;;
43819;SDS011;67762;52.476;6.046;2023-05-02T01:38:12;1999.90;;;999.90;;
43819;SDS011;67762;52.476;6.046;2023-05-02T01:40:40;1999.90;;;999.90;;
43819;SDS011;67762;52.476;6.046;2023-05-02T01:43:10;1999.90;;;999.90;;
43819;SDS011;67762;52.476;6.046;2023-05-02T01:45:36;1999.90;;;999.90;;
43819;SDS011;67762;52.476;6.046;2023-05-02T01:48:04;1999.90;;;999.90;;
43819;SDS011;67762;52.476;6.046;2023-05-02T01:50:31;1999.90;;;999.90;;
43819;SDS011;67762;52.476;6.046;2023-05-02T01:52:58;1999.90;;;999.90;;
43819;SDS011;67762;52.476;6.046;2023-05-02T01:55:26;1999.90;;;999.90;;
43819;SDS011;67762;52.476;6.046;2023-05-02T01:57:53;1999.90;;;999.90;;
43819;SDS011;67762;52.476;6.046;2023-05-02T02:00:20;1999.90;;;999.90;;
43819;SDS011;67762;52.476;6.046;2023-05-02T02:02:48;1999.90;;;999.90;;
43819;SDS011;67762;52.476;6.046;2023-05-02T02:05:15;1999.90;;;999.90;;
43819;SDS011;67762;52.476;6.046;2023-05-02T02:07:43;1999.90;;;999.90;;
43819;SDS011;67762;52.476;6.046;2023-05-02T02:10:08;1999.90;;;999.90;;
43819;SDS011;67762;52.476;6.046;2023-05-02T02:12:39;1999.90;;;999.90;;
43819;SDS011;67762;52.476;6.046;2023-05-02T02:15:20;1999.90;;;999.90;;
43819;SDS011;67762;52.476;6.046;2023-05-02T02:17:54;1999.90;;;999.90;;
43819;SDS011;67762;52.476;6.046;2023-05-02T02:20:26;1999.90;;;999.90;;
43819;SDS011;67762;52.476;6.046;2023-05-02T02:22:53;1999.90;;;999.90;;
43819;SDS011;67762;52.476;6.046;2023-05-02T02:25:21;1999.90;;;999.90;;
43819;SDS011;67762;52.476;6.046;2023-05-02T02:27:47;1999.90;;;999.90;;
43819;SDS011;67762;52.476;6.046;2023-05-02T02:30:13;1999.90;;;999.90;;
43819;SDS011;67762;52.476;6.046;2023-05-02T02:32:40;1999.90;;;999.90;;
43819;SDS011;67762;52.476;6.046;2023-05-02T02:35:06;1999.90;;;999.90;;
43819;SDS011;67762;52.476;6.046;2023-05-02T02:40:30;1999.90;;;999.90;;
43819;SDS011;67762;52.476;6.046;2023-05-02T02:43:02;1999.90;;;999.90;;
43819;SDS011;67762;52.476;6.046;2023-05-02T02:45:45;1999.90;;;999.90;;
43819;SDS011;67762;52.476;6.046;2023-05-02T02:48:36;1999.90;;;999.90;;
43819;SDS011;67762;52.476;6.046;2023-05-02T02:51:13;1999.90;;;999.90;;
43819;SDS011;67762;52.476;6.046;2023-05-02T02:56:27;1999.90;;;999.90;;
43819;SDS011;67762;52.476;6.046;2023-05-02T03:01:39;1999.90;;;999.90;;
43819;SDS011;67762;52.476;6.046;2023-05-02T03:04:07;1999.90;;;999.90;;
43819;SDS011;67762;52.476;6.046;2023-05-02T03:06:36;1999.90;;;999.90;;
43819;SDS011;67762;52.476;6.046;2023-05-02T03:09:04;1999.90;;;999.90;;
43819;SDS011;67762;52.476;6.046;2023-05-02T03:11:30;1999.90;;;999.90;;
43819;SDS011;67762;52.476;6.046;2023-05-02T03:13:57;1999.90;;;999.90;;
43819;SDS011;67762;52.476;6.046;2023-05-02T03:16:33;1999.90;;;999.90;;
43819;SDS011;67762;52.476;6.046;2023-05-02T03:19:02;1999.90;;;999.90;;
43819;SDS011;67762;52.476;6.046;2023-05-02T03:21:28;1999.90;;;999.90;;
43819;SDS011;67762;52.476;6.046;2023-05-02T03:24:00;1999.90;;;999.90;;
43819;SDS011;67762;52.476;6.046;2023-05-02T03:26:28;1999.90;;;999.90;;
43819;SDS011;67762;52.476;6.046;2023-05-02T03:28:54;1999.90;;;999.90;;
43819;SDS011;67762;52.476;6.046;2023-05-02T03:31:26;1999.90;;;999.90;;
43819;SDS011;67762;52.476;6.046;2023-05-02T03:33:52;1999.90;;;999.90;;
43819;SDS011;67762;52.476;6.046;2023-05-02T03:36:17;1999.90;;;999.90;;
43819;SDS011;67762;52.476;6.046;2023-05-02T03:38:43;1999.90;;;999.90;;
43819;SDS011;67762;52.476;6.046;2023-05-02T03:41:11;1999.90;;;999.90;;
43819;SDS011;67762;52.476;6.046;2023-05-02T03:43:36;1999.90;;;999.90;;
43819;SDS011;67762;52.476;6.046;2023-05-02T03:46:04;1999.90;;;999.90;;
43819;SDS011;67762;52.476;6.046;2023-05-02T03:48:33;1999.90;;;999.90;;
43819;SDS011;67762;52.476;6.046;2023-05-02T03:51:00;1999.90;;;999.90;;
43819;SDS011;67762;52.476;6.046;2023-05-02T03:53:28;1999.90;;;999.90;;
43819;SDS011;67762;52.476;6.046;2023-05-02T03:55:57;1999.90;;;999.90;;
43819;SDS011;67762;52.476;6.046;2023-05-02T03:58:32;1999.90;;;999.90;;
43819;SDS011;67762;52.476;6.046;2023-05-02T04:00:59;1999.90;;;999.90;;
43819;SDS011;67762;52.476;6.046;2023-05-02T04:03:26;1999.90;;;999.90;;
43819;SDS011;67762;52.476;6.046;2023-05-02T04:05:53;1999.90;;;999.90;;
43819;SDS011;67762;52.476;6.046;2023-05-02T04:08:18;1999.90;;;999.90;;
43819;SDS011;67762;52.476;6.046;2023-05-02T04:10:44;1999.90;;;999.90;;
43819;SDS011;67762;52.476;6.046;2023-05-02T04:13:11;1999.90;;;999.90;;
43819;SDS011;67762;52.476;6.046;2023-05-02T04:15:40;1999.90;;;999.90;;
43819;SDS011;67762;52.476;6.046;2023-05-02T04:18:06;1999.90;;;999.90;;
43819;SDS011;67762;52.476;6.046;2023-05-02T04:20:32;1999.90;;;999.90;;
43819;SDS011;67762;52.476;6.046;2023-05-02T04:22:58;1999.90;;;999.90;;
43819;SDS011;67762;52.476;6.046;2023-05-02T04:25:24;1999.90;;;999.90;;
43819;SDS011;67762;52.476;6.046;2023-05-02T04:27:52;1999.90;;;999.90;;
43819;SDS011;67762;52.476;6.046;2023-05-02T04:30:20;1999.90;;;999.90;;
43819;SDS011;67762;52.476;6.046;2023-05-02T04:32:55;1999.90;;;999.90;;
43819;SDS011;67762;52.476;6.046;2023-05-02T04:35:23;1999.90;;;999.90;;
43819;SDS011;67762;52.476;6.046;2023-05-02T04:37:48;1999.90;;;999.90;;
43819;SDS011;67762;52.476;6.046;2023-05-02T04:40:16;1999.90;;;999.90;;
43819;SDS011;67762;52.476;6.046;2023-05-02T04:42:44;1999.90;;;999.90;;
43819;SDS011;67762;52.476;6.046;2023-05-02T04:45:14;1999.90;;;999.90;;
43819;SDS011;67762;52.476;6.046;2023-05-02T04:47:42;1999.90;;;999.90;;
43819;SDS011;67762;52.476;6.046;2023-05-02T04:50:07;1999.90;;;999.90;;
43819;SDS011;67762;52.476;6.046;2023-05-02T04:52:34;1999.90;;;999.90;;
43819;SDS011;67762;52.476;6.046;2023-05-02T04:55:00;1999.90;;;999.90;;
43819;SDS011;67762;52.476;6.046;2023-05-02T04:57:26;1999.90;;;999.90;;
43819;SDS011;67762;52.476;6.046;2023-05-02T04:59:55;1999.90;;;999.90;;
43819;SDS011;67762;52.476;6.046;2023-05-02T05:02:21;1999.90;;;999.90;;
43819;SDS011;67762;52.476;6.046;2023-05-02T05:04:47;1999.90;;;999.90;;
43819;SDS011;67762;52.476;6.046;2023-05-02T05:07:13;1999.90;;;999.90;;
43819;SDS011;67762;52.476;6.046;2023-05-02T05:09:42;1999.90;;;999.90;;
43819;SDS011;67762;52.476;6.046;2023-05-02T05:12:07;1999.90;;;999.90;;
43819;SDS011;67762;52.476;6.046;2023-05-02T05:14:34;1999.90;;;999.90;;
43819;SDS011;67762;52.476;6.046;2023-05-02T05:17:00;1999.90;;;999.90;;
43819;SDS011;67762;52.476;6.046;2023-05-02T05:19:27;1999.90;;;999.90;;
43819;SDS011;67762;52.476;6.046;2023-05-02T05:21:54;1999.90;;;999.90;;
43819;SDS011;67762;52.476;6.046;2023-05-02T05:24:20;1999.90;;;999.90;;
43819;SDS011;67762;52.476;6.046;2023-05-02T05:26:47;1999.90;;;999.90;;
43819;SDS011;67762;52.476;6.046;2023-05-02T05:29:13;1999.90;;;999.90;;
43819;SDS011;67762;52.476;6.046;2023-05-02T05:31:40;1999.90;;;999.90;;
43819;SDS011;67762;52.476;6.046;2023-05-02T05:34:07;1999.90;;;999.90;;
43819;SDS011;67762;52.476;6.046;2023-05-02T05:36:34;1999.90;;;999.90;;
43819;SDS011;67762;52.476;6.046;2023-05-02T05:39:00;1999.90;;;999.90;;
43819;SDS011;67762;52.476;6.046;2023-05-02T05:41:26;1999.90;;;999.90;;
43819;SDS011;67762;52.476;6.046;2023-05-02T05:43:58;1999.90;;;999.90;;
43819;SDS011;67762;52.476;6.046;2023-05-02T05:46:25;1999.90;;;999.90;;
43819;SDS011;67762;52.476;6.046;2023-05-02T05:48:51;1999.90;;;999.90;;
43819;SDS011;67762;52.476;6.046;2023-05-02T05:51:17;1999.90;;;999.90;;
43819;SDS011;67762;52.476;6.046;2023-05-02T05:53:42;1999.90;;;999.90;;
43819;SDS011;67762;52.476;6.046;2023-05-02T05:56:10;1999.90;;;999.90;;
43819;SDS011;67762;52.476;6.046;2023-05-02T05:58:40;1999.90;;;999.90;;
43819;SDS011;67762;52.476;6.046;2023-05-02T06:01:07;1999.90;;;999.90;;
43819;SDS011;67762;52.476;6.046;2023-05-02T06:03:33;1999.90;;;999.90;;
43819;SDS011;67762;52.476;6.046;2023-05-02T06:05:59;1999.90;;;999.90;;
43819;SDS011;67762;52.476;6.046;2023-05-02T06:08:25;1999.90;;;999.90;;
43819;SDS011;67762;52.476;6.046;2023-05-02T06:10:51;1999.90;;;999.90;;
43819;SDS011;67762;52.476;6.046;2023-05-02T06:13:17;1999.90;;;999.90;;
43819;SDS011;67762;52.476;6.046;2023-05-02T06:15:43;1999.90;;;999.90;;
43819;SDS011;67762;52.476;6.046;2023-05-02T06:18:08;1999.90;;;999.90;;
43819;SDS011;67762;52.476;6.046;2023-05-02T06:20:35;1999.90;;;999.90;;
43819;SDS011;67762;52.476;6.046;2023-05-02T06:23:01;1999.90;;;999.90;;
43819;SDS011;67762;52.476;6.046;2023-05-02T06:25:26;1999.90;;;999.90;;
43819;SDS011;67762;52.476;6.046;2023-05-02T06:27:53;1999.90;;;999.90;;
43819;SDS011;67762;52.476;6.046;2023-05-02T06:30:18;1999.90;;;999.90;;
43819;SDS011;67762;52.476;6.046;2023-05-02T06:32:45;1999.90;;;999.90;;
43819;SDS011;67762;52.476;6.046;2023-05-02T06:35:10;1999.90;;;999.90;;
43819;SDS011;67762;52.476;6.046;2023-05-02T06:37:36;1999.90;;;999.90;;
43819;SDS011;67762;52.476;6.046;2023-05-02T06:40:02;1999.90;;;999.90;;
43819;SDS011;67762;52.476;6.046;2023-05-02T06:42:29;1999.90;;;999.90;;
43819;SDS011;67762;52.476;6.046;2023-05-02T06:44:54;1999.90;;;999.90;;
43819;SDS011;67762;52.476;6.046;2023-05-02T06:47:20;1999.90;;;999.90;;
43819;SDS011;67762;52.476;6.046;2023-05-02T06:49:49;1999.90;;;999.90;;
43819;SDS011;67762;52.476;6.046;2023-05-02T06:52:16;1999.90;;;999.90;;
43819;SDS011;67762;52.476;6.046;2023-05-02T06:54:42;1999.90;;;999.90;;
43819;SDS011;67762;52.476;6.046;2023-05-02T06:57:07;1999.90;;;999.90;;
43819;SDS011;67762;52.476;6.046;2023-05-02T06:59:33;1999.90;;;999.90;;
43819;SDS011;67762;52.476;6.046;2023-05-02T07:01:59;1999.90;;;999.90;;
43819;SDS011;67762;52.476;6.046;2023-05-02T07:04:25;1999.90;;;999.90;;
43819;SDS011;67762;52.476;6.046;2023-05-02T07:06:50;1999.90;;;999.90;;
43819;SDS011;67762;52.476;6.046;2023-05-02T07:09:16;1999.90;;;999.90;;
43819;SDS011;67762;52.476;6.046;2023-05-02T07:11:42;1999.90;;;999.90;;
43819;SDS011;67762;52.476;6.046;2023-05-02T07:14:08;1999.90;;;999.90;;
43819;SDS011;67762;52.476;6.046;2023-05-02T07:16:33;1999.90;;;999.90;;
43819;SDS011;67762;52.476;6.046;2023-05-02T07:18:59;1999.90;;;999.90;;
43819;SDS011;67762;52.476;6.046;2023-05-02T07:21:28;1999.90;;;999.90;;
43819;SDS011;67762;52.476;6.046;2023-05-02T07:23:54;1999.90;;;999.90;;
43819;SDS011;67762;52.476;6.046;2023-05-02T07:26:22;1999.90;;;999.90;;
43819;SDS011;67762;52.476;6.046;2023-05-02T07:28:47;1999.90;;;999.90;;
43819;SDS011;67762;52.476;6.046;2023-05-02T07:31:13;1999.90;;;999.90;;
43819;SDS011;67762;52.476;6.046;2023-05-02T07:33:39;572.70;;;319.05;;
43819;SDS011;67762;52.476;6.046;2023-05-02T07:36:06;1999.90;;;999.90;;
43819;SDS011;67762;52.476;6.046;2023-05-02T07:38:32;98.00;;;91.78;;
43819;SDS011;67762;52.476;6.046;2023-05-02T07:40:57;155.05;;;145.20;;
43819;SDS011;67762;52.476;6.046;2023-05-02T07:43:23;76.88;;;72.75;;
43819;SDS011;67762;52.476;6.046;2023-05-02T07:45:49;89.05;;;83.57;;
43819;SDS011;67762;52.476;6.046;2023-05-02T07:48:16;126.55;;;118.32;;
43819;SDS011;67762;52.476;6.046;2023-05-02T07:50:42;97.22;;;91.63;;
43819;SDS011;67762;52.476;6.046;2023-05-02T07:53:09;119.38;;;112.05;;
43819;SDS011;67762;52.476;6.046;2023-05-02T07:55:35;79.15;;;73.82;;
43819;SDS011;67762;52.476;6.046;2023-05-02T07:58:01;68.30;;;63.65;;
43819;SDS011;67762;52.476;6.046;2023-05-02T08:00:28;71.15;;;66.75;;
43819;SDS011;67762;52.476;6.046;2023-05-02T08:02:54;57.07;;;53.60;;
43819;SDS011;67762;52.476;6.046;2023-05-02T08:05:20;71.25;;;67.10;;
43819;SDS011;67762;52.476;6.046;2023-05-02T08:07:47;73.10;;;68.50;;
43819;SDS011;67762;52.476;6.046;2023-05-02T08:10:12;78.32;;;73.15;;
43819;SDS011;67762;52.476;6.046;2023-05-02T08:12:41;47.85;;;45.35;;
43819;SDS011;67762;52.476;6.046;2023-05-02T08:15:07;91.90;;;86.05;;
43819;SDS011;67762;52.476;6.046;2023-05-02T08:17:35;96.43;;;90.82;;
43819;SDS011;67762;52.476;6.046;2023-05-02T08:20:01;110.47;;;103.20;;
43819;SDS011;67762;52.476;6.046;2023-05-02T08:22:27;175.57;;;165.48;;
43819;SDS011;67762;52.476;6.046;2023-05-02T08:24:52;156.43;;;145.48;;
43819;SDS011;67762;52.476;6.046;2023-05-02T08:27:18;174.05;;;163.13;;
43819;SDS011;67762;52.476;6.046;2023-05-02T08:29:43;63.65;;;59.20;;
43819;SDS011;67762;52.476;6.046;2023-05-02T08:32:09;1999.90;;;999.90;;
43819;SDS011;67762;52.476;6.046;2023-05-02T08:34:34;1999.90;;;999.90;;
43819;SDS011;67762;52.476;6.046;2023-05-02T08:37:00;137.15;;;129.32;;
43819;SDS011;67762;52.476;6.046;2023-05-02T08:39:26;560.58;;;307.17;;
43819;SDS011;67762;52.476;6.046;2023-05-02T08:41:52;176.02;;;163.75;;
43819;SDS011;67762;52.476;6.046;2023-05-02T08:44:17;73.07;;;68.75;;
43819;SDS011;67762;52.476;6.046;2023-05-02T08:46:43;158.05;;;147.60;;
43819;SDS011;67762;52.476;6.046;2023-05-02T08:49:09;1999.90;;;999.90;;
43819;SDS011;67762;52.476;6.046;2023-05-02T08:51:36;1999.90;;;999.90;;
43819;SDS011;67762;52.476;6.046;2023-05-02T08:54:02;108.90;;;102.80;;
43819;SDS011;67762;52.476;6.046;2023-05-02T08:56:28;123.25;;;115.25;;
43819;SDS011;67762;52.476;6.046;2023-05-02T08:58:54;88.47;;;83.80;;
43819;SDS011;67762;52.476;6.046;2023-05-02T09:01:21;150.68;;;141.25;;
43819;SDS011;67762;52.476;6.046;2023-05-02T09:03:48;586.83;;;331.70;;
43819;SDS011;67762;52.476;6.046;2023-05-02T09:06:18;1999.90;;;999.90;;
43819;SDS011;67762;52.476;6.046;2023-05-02T09:08:46;1999.90;;;999.90;;
43819;SDS011;67762;52.476;6.046;2023-05-02T09:11:13;594.83;;;339.38;;
43819;SDS011;67762;52.476;6.046;2023-05-02T09:13:41;1999.90;;;999.90;;
43819;SDS011;67762;52.476;6.046;2023-05-02T09:16:18;1999.90;;;999.90;;
43819;SDS011;67762;52.476;6.046;2023-05-02T09:21:26;71.82;;;67.40;;
43819;SDS011;67762;52.476;6.046;2023-05-02T09:24:00;123.18;;;114.57;;
43819;SDS011;67762;52.476;6.046;2023-05-02T09:26:28;69.63;;;65.22;;
43819;SDS011;67762;52.476;6.046;2023-05-02T09:28:57;79.43;;;74.30;;
43819;SDS011;67762;52.476;6.046;2023-05-02T09:31:24;108.38;;;101.43;;
43819;SDS011;67762;52.476;6.046;2023-05-02T09:33:51;50.08;;;47.15;;
43819;SDS011;67762;52.476;6.046;2023-05-02T09:36:19;39.10;;;36.67;;
43819;SDS011;67762;52.476;6.046;2023-05-02T09:38:46;45.13;;;42.20;;
43819;SDS011;67762;52.476;6.046;2023-05-02T09:41:13;73.30;;;68.43;;
43819;SDS011;67762;52.476;6.046;2023-05-02T09:43:39;42.60;;;38.97;;
43819;SDS011;67762;52.476;6.046;2023-05-02T09:46:07;45.55;;;42.60;;
43819;SDS011;67762;52.476;6.046;2023-05-02T09:48:53;35.10;;;32.50;;
43819;SDS011;67762;52.476;6.046;2023-05-02T09:51:23;33.42;;;31.25;;
43819;SDS011;67762;52.476;6.046;2023-05-02T09:53:50;34.75;;;32.58;;
43819;SDS011;67762;52.476;6.046;2023-05-02T09:56:16;41.08;;;38.47;;
43819;SDS011;67762;52.476;6.046;2023-05-02T09:58:43;35.97;;;33.75;;
43819;SDS011;67762;52.476;6.046;2023-05-02T10:01:15;47.35;;;43.83;;
43819;SDS011;67762;52.476;6.046;2023-05-02T10:03:41;35.70;;;32.90;;
43819;SDS011;67762;52.476;6.046;2023-05-02T10:06:11;51.03;;;47.45;;
43819;SDS011;67762;52.476;6.046;2023-05-02T10:08:37;37.33;;;34.97;;
43819;SDS011;67762;52.476;6.046;2023-05-02T10:11:06;43.45;;;40.33;;
43819;SDS011;67762;52.476;6.046;2023-05-02T10:13:33;57.30;;;53.92;;
43819;SDS011;67762;52.476;6.046;2023-05-02T10:16:04;55.38;;;51.78;;
43819;SDS011;67762;52.476;6.046;2023-05-02T10:18:41;45.53;;;43.13;;
43819;SDS011;67762;52.476;6.046;2023-05-02T10:21:15;49.80;;;46.13;;
43819;SDS011;67762;52.476;6.046;2023-05-02T10:23:44;71.82;;;67.70;;
43819;SDS011;67762;52.476;6.046;2023-05-02T10:26:15;82.70;;;77.82;;
43819;SDS011;67762;52.476;6.046;2023-05-02T10:28:41;90.90;;;85.43;;
43819;SDS011;67762;52.476;6.046;2023-05-02T10:31:11;78.90;;;73.95;;
43819;SDS011;67762;52.476;6.046;2023-05-02T10:33:38;101.43;;;95.97;;
43819;SDS011;67762;52.476;6.046;2023-05-02T10:36:06;99.97;;;94.30;;
43819;SDS011;67762;52.476;6.046;2023-05-02T10:38:34;78.93;;;73.65;;
43819;SDS011;67762;52.476;6.046;2023-05-02T10:41:02;115.97;;;109.25;;
43819;SDS011;67762;52.476;6.046;2023-05-02T10:43:33;91.68;;;86.45;;
43819;SDS011;67762;52.476;6.046;2023-05-02T10:46:00;69.40;;;65.30;;
43819;SDS011;67762;52.476;6.046;2023-05-02T10:48:27;83.70;;;78.88;;
43819;SDS011;67762;52.476;6.046;2023-05-02T10:50:58;53.00;;;49.90;;
43819;SDS011;67762;52.476;6.046;2023-05-02T10:56:17;39.05;;;36.75;;
43819;SDS011;67762;52.476;6.046;2023-05-02T10:58:47;51.70;;;48.42;;
43819;SDS011;67762;52.476;6.046;2023-05-02T11:03:58;47.15;;;44.10;;
43819;SDS011;67762;52.476;6.046;2023-05-02T11:06:28;52.78;;;48.92;;
43819;SDS011;67762;52.476;6.046;2023-05-02T11:11:47;51.38;;;47.58;;
43819;SDS011;67762;52.476;6.046;2023-05-02T11:24:47;63.15;;;58.40;;
43819;SDS011;67762;52.476;6.046;2023-05-02T11:29:58;104.28;;;93.57;;
43819;SDS011;67762;52.476;6.046;2023-05-02T11:35:17;60.20;;;55.92;;
43819;SDS011;67762;52.476;6.046;2023-05-02T11:40:23;74.13;;;69.05;;
43819;SDS011;67762;52.476;6.046;2023-05-02T11:42:50;80.72;;;75.60;;
43819;SDS011;67762;52.476;6.046;2023-05-02T11:45:16;58.47;;;54.05;;
43819;SDS011;67762;52.476;6.046;2023-05-02T11:47:43;42.65;;;40.10;;
43819;SDS011;67762;52.476;6.046;2023-05-02T11:50:10;32.28;;;29.75;;
43819;SDS011;67762;52.476;6.046;2023-05-02T11:52:37;240.35;;;205.15;;
43819;SDS011;67762;52.476;6.046;2023-05-02T11:55:07;41.38;;;38.88;;
43819;SDS011;67762;52.476;6.046;2023-05-02T11:57:37;32.20;;;29.98;;
43819;SDS011;67762;52.476;6.046;2023-05-02T12:00:04;42.63;;;39.95;;
43819;SDS011;67762;52.476;6.046;2023-05-02T12:02:34;39.30;;;36.65;;
43819;SDS011;67762;52.476;6.046;2023-05-02T12:05:01;30.23;;;28.15;;
43819;SDS011;67762;52.476;6.046;2023-05-02T12:07:36;45.63;;;42.58;;
43819;SDS011;67762;52.476;6.046;2023-05-02T12:10:04;41.33;;;38.47;;
43819;SDS011;67762;52.476;6.046;2023-05-02T12:12:31;32.42;;;30.38;;
43819;SDS011;67762;52.476;6.046;2023-05-02T12:14:57;34.75;;;32.17;;
43819;SDS011;67762;52.476;6.046;2023-05-02T12:17:23;45.25;;;42.17;;
43819;SDS011;67762;52.476;6.046;2023-05-02T12:19:50;36.08;;;33.90;;
43819;SDS011;67762;52.476;6.046;2023-05-02T12:22:16;31.98;;;29.42;;
43819;SDS011;67762;52.476;6.046;2023-05-02T12:24:42;28.42;;;26.75;;
43819;SDS011;67762;52.476;6.046;2023-05-02T12:29:38;33.85;;;31.45;;
43819;SDS011;67762;52.476;6.046;2023-05-02T12:32:06;52.90;;;49.58;;
43819;SDS011;67762;52.476;6.046;2023-05-02T12:34:32;33.22;;;31.25;;
43819;SDS011;67762;52.476;6.046;2023-05-02T12:36:58;35.42;;;33.17;;
43819;SDS011;67762;52.476;6.046;2023-05-02T12:39:37;30.52;;;28.63;;
43819;SDS011;67762;52.476;6.046;2023-05-02T12:42:11;30.77;;;28.88;;
43819;SDS011;67762;52.476;6.046;2023-05-02T12:44:38;28.60;;;26.70;;
43819;SDS011;67762;52.476;6.046;2023-05-02T12:47:06;29.92;;;28.00;;
43819;SDS011;67762;52.476;6.046;2023-05-02T12:49:32;31.67;;;29.67;;
43819;SDS011;67762;52.476;6.046;2023-05-02T12:52:12;29.65;;;28.05;;
43819;SDS011;67762;52.476;6.046;2023-05-02T12:54:38;27.45;;;25.70;;
43819;SDS011;67762;52.476;6.046;2023-05-02T12:57:04;32.00;;;29.85;;
43819;SDS011;67762;52.476;6.046;2023-05-02T12:59:30;33.20;;;31.27;;
43819;SDS011;67762;52.476;6.046;2023-05-02T13:01:56;30.45;;;28.55;;
43819;SDS011;67762;52.476;6.046;2023-05-02T13:04:32;26.92;;;25.33;;
43819;SDS011;67762;52.476;6.046;2023-05-02T13:06:59;38.80;;;36.55;;
43819;SDS011;67762;52.476;6.046;2023-05-02T13:09:25;33.38;;;31.48;;
43819;SDS011;67762;52.476;6.046;2023-05-02T13:11:51;29.92;;;27.70;;
43819;SDS011;67762;52.476;6.046;2023-05-02T13:14:18;29.85;;;27.98;;
43819;SDS011;67762;52.476;6.046;2023-05-02T13:16:44;25.23;;;23.52;;
43819;SDS011;67762;52.476;6.046;2023-05-02T13:19:09;28.42;;;26.58;;
43819;SDS011;67762;52.476;6.046;2023-05-02T13:21:35;26.60;;;24.70;;
43819;SDS011;67762;52.476;6.046;2023-05-02T13:24:01;22.02;;;20.83;;
43819;SDS011;67762;52.476;6.046;2023-05-02T13:26:28;25.27;;;23.55;;
43819;SDS011;67762;52.476;6.046;2023-05-02T13:28:54;25.67;;;24.15;;
43819;SDS011;67762;52.476;6.046;2023-05-02T13:31:20;22.27;;;21.02;;
43819;SDS011;67762;52.476;6.046;2023-05-02T13:33:46;25.17;;;23.83;;
43819;SDS011;67762;52.476;6.046;2023-05-02T13:36:11;26.45;;;24.73;;
43819;SDS011;67762;52.476;6.046;2023-05-02T13:38:37;26.98;;;25.33;;
43819;SDS011;67762;52.476;6.046;2023-05-02T13:41:03;23.17;;;21.88;;
43819;SDS011;67762;52.476;6.046;2023-05-02T13:43:29;26.63;;;25.02;;
43819;SDS011;67762;52.476;6.046;2023-05-02T13:45:55;26.55;;;24.70;;
43819;SDS011;67762;52.476;6.046;2023-05-02T13:48:20;24.10;;;22.70;;
43819;SDS011;67762;52.476;6.046;2023-05-02T13:50:46;24.52;;;23.02;;
43819;SDS011;67762;52.476;6.046;2023-05-02T13:53:11;23.42;;;21.88;;
43819;SDS011;67762;52.476;6.046;2023-05-02T13:55:37;28.33;;;26.55;;
43819;SDS011;67762;52.476;6.046;2023-05-02T13:58:02;21.58;;;20.35;;
43819;SDS011;67762;52.476;6.046;2023-05-02T14:00:28;24.25;;;22.83;;
43819;SDS011;67762;52.476;6.046;2023-05-02T14:02:53;22.92;;;21.50;;
43819;SDS011;67762;52.476;6.046;2023-05-02T14:05:19;24.90;;;23.33;;
43819;SDS011;67762;52.476;6.046;2023-05-02T14:07:45;22.42;;;20.90;;
43819;SDS011;67762;52.476;6.046;2023-05-02T14:10:11;26.85;;;24.92;;
43819;SDS011;67762;52.476;6.046;2023-05-02T14:12:36;28.35;;;26.75;;
43819;SDS011;67762;52.476;6.046;2023-05-02T14:15:02;30.08;;;28.38;;
43819;SDS011;67762;52.476;6.046;2023-05-02T14:17:29;31.20;;;29.20;;
43819;SDS011;67762;52.476;6.046;2023-05-02T14:19:55;30.17;;;28.58;;
43819;SDS011;67762;52.476;6.046;2023-05-02T14:22:21;30.40;;;28.77;;
43819;SDS011;67762;52.476;6.046;2023-05-02T14:24:47;28.95;;;27.23;;
43819;SDS011;67762;52.476;6.046;2023-05-02T14:27:12;25.77;;;24.30;;
43819;SDS011;67762;52.476;6.046;2023-05-02T14:29:46;31.92;;;30.08;;
43819;SDS011;67762;52.476;6.046;2023-05-02T14:32:12;23.80;;;22.40;;
43819;SDS011;67762;52.476;6.046;2023-05-02T14:34:38;27.70;;;26.08;;
43819;SDS011;67762;52.476;6.046;2023-05-02T14:37:04;29.38;;;27.35;;
43819;SDS011;67762;52.476;6.046;2023-05-02T14:39:30;97.88;;;67.15;;
43819;SDS011;67762;52.476;6.046;2023-05-02T14:41:56;47.72;;;42.00;;
43819;SDS011;67762;52.476;6.046;2023-05-02T14:44:22;32.28;;;30.45;;
43819;SDS011;67762;52.476;6.046;2023-05-02T14:46:48;30.73;;;28.83;;
43819;SDS011;67762;52.476;6.046;2023-05-02T14:49:15;39.90;;;36.00;;
43819;SDS011;67762;52.476;6.046;2023-05-02T14:51:41;27.98;;;26.25;;
43819;SDS011;67762;52.476;6.046;2023-05-02T14:54:11;26.80;;;25.20;;